sensor_id;sensor_type;location;lat;lon;timestamp;P1;durP1;ratioP1;P2;durP2;ratioP2
76939;SDS011;65885;55.848;35.916;2023-07-09T00:02:15;4.07;;;2.70;;
76939;SDS011;65885;55.848;35.916;2023-07-09T00:04:42;4.03;;;3.20;;
76939;SDS011;65885;55.848;35.916;2023-07-09T00:07:13;6.72;;;2.83;;
76939;SDS011;65885;55.848;35.916;2023-07-09T00:09:44;3.38;;;2.20;;
76939;SDS011;65885;55.848;35.916;2023-07-09T00:12:13;3.25;;;2.72;;
76939;SDS011;65885;55.848;35.916;2023-07-09T00:14:43;4.45;;;3.10;;
76939;SDS011;65885;55.848;35.916;2023-07-09T00:17:11;7.18;;;3.80;;
76939;SDS011;65885;55.848;35.916;2023-07-09T00:19:45;5.90;;;3.50;;
76939;SDS011;65885;55.848;35.916;2023-07-09T00:22:13;6.75;;;3.35;;
76939;SDS011;65885;55.848;35.916;2023-07-09T00:24:43;3.88;;;2.17;;
76939;SDS011;65885;55.848;35.916;2023-07-09T00:27:11;4.28;;;2.55;;
76939;SDS011;65885;55.848;35.916;2023-07-09T00:29:40;5.20;;;2.58;;
76939;SDS011;65885;55.848;35.916;2023-07-09T00:32:12;21.63;;;5.18;;
76939;SDS011;65885;55.848;35.916;2023-07-09T00:34:41;4.10;;;2.47;;
76939;SDS011;65885;55.848;35.916;2023-07-09T00:37:14;3.80;;;3.05;;
76939;SDS011;65885;55.848;35.916;2023-07-09T00:39:43;4.13;;;3.00;;
76939;SDS011;65885;55.848;35.916;2023-07-09T00:42:11;5.68;;;3.13;;
76939;SDS011;65885;55.848;35.916;2023-07-09T00:44:43;5.32;;;3.30;;
76939;SDS011;65885;55.848;35.916;2023-07-09T00:50:11;5.53;;;3.85;;
76939;SDS011;65885;55.848;35.916;2023-07-09T00:52:50;4.65;;;3.10;;
76939;SDS011;65885;55.848;35.916;2023-07-09T00:55:21;4.60;;;3.25;;
76939;SDS011;65885;55.848;35.916;2023-07-09T00:57:58;3.92;;;3.08;;
76939;SDS011;65885;55.848;35.916;2023-07-09T01:00:36;7.47;;;3.22;;
76939;SDS011;65885;55.848;35.916;2023-07-09T01:03:15;6.13;;;3.45;;
76939;SDS011;65885;55.848;35.916;2023-07-09T01:08:17;5.57;;;3.53;;
76939;SDS011;65885;55.848;35.916;2023-07-09T01:10:46;4.30;;;2.90;;
76939;SDS011;65885;55.848;35.916;2023-07-09T01:13:14;4.50;;;3.30;;
76939;SDS011;65885;55.848;35.916;2023-07-09T01:15:43;4.55;;;3.10;;
76939;SDS011;65885;55.848;35.916;2023-07-09T01:18:13;5.28;;;3.05;;
76939;SDS011;65885;55.848;35.916;2023-07-09T01:20:41;4.13;;;3.13;;
76939;SDS011;65885;55.848;35.916;2023-07-09T01:23:10;6.72;;;3.28;;
76939;SDS011;65885;55.848;35.916;2023-07-09T01:25:38;4.07;;;2.75;;
76939;SDS011;65885;55.848;35.916;2023-07-09T01:28:09;5.90;;;3.15;;
76939;SDS011;65885;55.848;35.916;2023-07-09T01:30:38;3.45;;;2.90;;
76939;SDS011;65885;55.848;35.916;2023-07-09T01:33:07;4.85;;;3.03;;
76939;SDS011;65885;55.848;35.916;2023-07-09T01:35:36;3.13;;;2.70;;
76939;SDS011;65885;55.848;35.916;2023-07-09T01:38:06;5.43;;;3.85;;
76939;SDS011;65885;55.848;35.916;2023-07-09T01:40:36;5.40;;;3.17;;
76939;SDS011;65885;55.848;35.916;2023-07-09T01:43:03;4.40;;;3.35;;
76939;SDS011;65885;55.848;35.916;2023-07-09T01:45:33;4.20;;;2.97;;
76939;SDS011;65885;55.848;35.916;2023-07-09T01:48:02;4.80;;;3.50;;
76939;SDS011;65885;55.848;35.916;2023-07-09T01:50:30;5.07;;;3.33;;
76939;SDS011;65885;55.848;35.916;2023-07-09T01:52:57;5.65;;;3.65;;
76939;SDS011;65885;55.848;35.916;2023-07-09T01:55:26;3.97;;;3.38;;
76939;SDS011;65885;55.848;35.916;2023-07-09T01:57:56;5.50;;;3.60;;
76939;SDS011;65885;55.848;35.916;2023-07-09T02:00:24;5.28;;;3.47;;
76939;SDS011;65885;55.848;35.916;2023-07-09T02:02:51;4.60;;;3.38;;
76939;SDS011;65885;55.848;35.916;2023-07-09T02:05:20;3.88;;;2.58;;
76939;SDS011;65885;55.848;35.916;2023-07-09T02:07:47;4.45;;;3.30;;
76939;SDS011;65885;55.848;35.916;2023-07-09T02:10:15;4.40;;;3.35;;
76939;SDS011;65885;55.848;35.916;2023-07-09T02:12:44;8.20;;;4.18;;
76939;SDS011;65885;55.848;35.916;2023-07-09T02:15:14;3.58;;;3.05;;
76939;SDS011;65885;55.848;35.916;2023-07-09T02:17:43;3.67;;;2.88;;
76939;SDS011;65885;55.848;35.916;2023-07-09T02:20:11;5.22;;;2.97;;
76939;SDS011;65885;55.848;35.916;2023-07-09T02:22:39;5.95;;;3.05;;
76939;SDS011;65885;55.848;35.916;2023-07-09T02:25:08;3.60;;;3.03;;
76939;SDS011;65885;55.848;35.916;2023-07-09T02:27:35;5.53;;;2.88;;
76939;SDS011;65885;55.848;35.916;2023-07-09T02:30:03;3.15;;;2.53;;
76939;SDS011;65885;55.848;35.916;2023-07-09T02:32:34;4.25;;;2.65;;
76939;SDS011;65885;55.848;35.916;2023-07-09T02:35:01;5.00;;;2.50;;
76939;SDS011;65885;55.848;35.916;2023-07-09T02:37:31;3.75;;;2.75;;
76939;SDS011;65885;55.848;35.916;2023-07-09T02:39:58;4.60;;;2.63;;
76939;SDS011;65885;55.848;35.916;2023-07-09T02:42:26;4.25;;;3.03;;
76939;SDS011;65885;55.848;35.916;2023-07-09T02:44:53;4.25;;;3.00;;
76939;SDS011;65885;55.848;35.916;2023-07-09T02:47:20;3.90;;;3.00;;
76939;SDS011;65885;55.848;35.916;2023-07-09T02:49:49;5.43;;;3.13;;
76939;SDS011;65885;55.848;35.916;2023-07-09T02:52:16;3.83;;;2.97;;
76939;SDS011;65885;55.848;35.916;2023-07-09T02:54:44;3.65;;;2.58;;
76939;SDS011;65885;55.848;35.916;2023-07-09T02:57:11;4.10;;;2.50;;
76939;SDS011;65885;55.848;35.916;2023-07-09T02:59:38;4.93;;;2.88;;
76939;SDS011;65885;55.848;35.916;2023-07-09T03:02:06;4.47;;;3.05;;
76939;SDS011;65885;55.848;35.916;2023-07-09T03:04:33;3.53;;;2.50;;
76939;SDS011;65885;55.848;35.916;2023-07-09T03:07:02;4.65;;;2.65;;
76939;SDS011;65885;55.848;35.916;2023-07-09T03:09:30;4.15;;;2.78;;
76939;SDS011;65885;55.848;35.916;2023-07-09T03:11:57;4.50;;;3.08;;
76939;SDS011;65885;55.848;35.916;2023-07-09T03:14:25;3.75;;;2.78;;
76939;SDS011;65885;55.848;35.916;2023-07-09T03:16:52;4.53;;;2.90;;
76939;SDS011;65885;55.848;35.916;2023-07-09T03:19:21;4.75;;;2.70;;
76939;SDS011;65885;55.848;35.916;2023-07-09T03:21:48;2.72;;;2.40;;
76939;SDS011;65885;55.848;35.916;2023-07-09T03:24:17;3.15;;;2.53;;
76939;SDS011;65885;55.848;35.916;2023-07-09T03:26:45;3.47;;;2.58;;
76939;SDS011;65885;55.848;35.916;2023-07-09T03:29:13;3.70;;;2.60;;
76939;SDS011;65885;55.848;35.916;2023-07-09T03:31:40;3.72;;;2.78;;
76939;SDS011;65885;55.848;35.916;2023-07-09T03:34:07;3.53;;;2.53;;
76939;SDS011;65885;55.848;35.916;2023-07-09T03:36:35;4.75;;;2.72;;
76939;SDS011;65885;55.848;35.916;2023-07-09T03:39:03;3.90;;;2.85;;
76939;SDS011;65885;55.848;35.916;2023-07-09T03:41:32;4.20;;;2.80;;
76939;SDS011;65885;55.848;35.916;2023-07-09T03:43:59;4.57;;;3.03;;
76939;SDS011;65885;55.848;35.916;2023-07-09T03:46:27;3.10;;;2.60;;
76939;SDS011;65885;55.848;35.916;2023-07-09T03:48:54;3.80;;;3.20;;
76939;SDS011;65885;55.848;35.916;2023-07-09T03:51:22;3.65;;;2.88;;
76939;SDS011;65885;55.848;35.916;2023-07-09T03:53:49;3.50;;;2.50;;
76939;SDS011;65885;55.848;35.916;2023-07-09T03:56:16;4.72;;;2.55;;
76939;SDS011;65885;55.848;35.916;2023-07-09T03:58:45;3.83;;;2.85;;
76939;SDS011;65885;55.848;35.916;2023-07-09T04:01:12;9.32;;;2.95;;
76939;SDS011;65885;55.848;35.916;2023-07-09T04:03:41;2.50;;;2.30;;
76939;SDS011;65885;55.848;35.916;2023-07-09T04:06:09;3.97;;;2.80;;
76939;SDS011;65885;55.848;35.916;2023-07-09T04:08:36;3.88;;;2.30;;
76939;SDS011;65885;55.848;35.916;2023-07-09T04:11:03;3.15;;;2.53;;
76939;SDS011;65885;55.848;35.916;2023-07-09T04:13:31;3.50;;;2.42;;
76939;SDS011;65885;55.848;35.916;2023-07-09T04:16:00;4.07;;;3.17;;
76939;SDS011;65885;55.848;35.916;2023-07-09T04:18:27;2.88;;;2.28;;
76939;SDS011;65885;55.848;35.916;2023-07-09T04:20:55;4.88;;;2.60;;
76939;SDS011;65885;55.848;35.916;2023-07-09T04:23:22;3.00;;;2.22;;
76939;SDS011;65885;55.848;35.916;2023-07-09T04:25:49;2.58;;;2.00;;
76939;SDS011;65885;55.848;35.916;2023-07-09T04:28:17;6.47;;;2.45;;
76939;SDS011;65885;55.848;35.916;2023-07-09T04:30:47;2.35;;;1.95;;
76939;SDS011;65885;55.848;35.916;2023-07-09T04:33:17;2.35;;;2.13;;
76939;SDS011;65885;55.848;35.916;2023-07-09T04:35:45;2.65;;;2.25;;
76939;SDS011;65885;55.848;35.916;2023-07-09T04:38:13;3.40;;;2.40;;
76939;SDS011;65885;55.848;35.916;2023-07-09T04:40:41;3.08;;;1.90;;
76939;SDS011;65885;55.848;35.916;2023-07-09T04:43:08;3.08;;;2.20;;
76939;SDS011;65885;55.848;35.916;2023-07-09T04:45:36;3.10;;;2.20;;
76939;SDS011;65885;55.848;35.916;2023-07-09T04:48:03;2.20;;;1.90;;
76939;SDS011;65885;55.848;35.916;2023-07-09T04:50:33;1.88;;;1.67;;
76939;SDS011;65885;55.848;35.916;2023-07-09T04:53:00;2.25;;;1.65;;
76939;SDS011;65885;55.848;35.916;2023-07-09T04:55:29;2.65;;;2.05;;
76939;SDS011;65885;55.848;35.916;2023-07-09T04:57:56;2.75;;;1.90;;
76939;SDS011;65885;55.848;35.916;2023-07-09T05:00:23;3.03;;;1.85;;
76939;SDS011;65885;55.848;35.916;2023-07-09T05:02:51;2.55;;;1.88;;
76939;SDS011;65885;55.848;35.916;2023-07-09T05:05:18;2.67;;;1.80;;
76939;SDS011;65885;55.848;35.916;2023-07-09T05:07:47;2.20;;;2.00;;
76939;SDS011;65885;55.848;35.916;2023-07-09T05:10:16;4.13;;;1.85;;
76939;SDS011;65885;55.848;35.916;2023-07-09T05:12:47;2.40;;;1.73;;
76939;SDS011;65885;55.848;35.916;2023-07-09T05:17:48;1.83;;;1.67;;
76939;SDS011;65885;55.848;35.916;2023-07-09T05:20:16;2.58;;;1.60;;
76939;SDS011;65885;55.848;35.916;2023-07-09T05:22:44;3.03;;;1.77;;
76939;SDS011;65885;55.848;35.916;2023-07-09T05:25:12;2.53;;;1.63;;
76939;SDS011;65885;55.848;35.916;2023-07-09T05:27:40;2.30;;;1.67;;
76939;SDS011;65885;55.848;35.916;2023-07-09T05:30:08;2.03;;;1.45;;
76939;SDS011;65885;55.848;35.916;2023-07-09T05:32:36;2.25;;;1.50;;
76939;SDS011;65885;55.848;35.916;2023-07-09T05:35:04;2.13;;;1.60;;
76939;SDS011;65885;55.848;35.916;2023-07-09T05:37:33;2.80;;;1.60;;
76939;SDS011;65885;55.848;35.916;2023-07-09T05:40:00;2.13;;;1.63;;
76939;SDS011;65885;55.848;35.916;2023-07-09T05:42:31;1.88;;;1.40;;
76939;SDS011;65885;55.848;35.916;2023-07-09T05:44:59;1.27;;;1.13;;
76939;SDS011;65885;55.848;35.916;2023-07-09T05:47:31;2.38;;;1.30;;
76939;SDS011;65885;55.848;35.916;2023-07-09T05:49:58;1.60;;;1.25;;
76939;SDS011;65885;55.848;35.916;2023-07-09T05:52:25;1.38;;;1.20;;
76939;SDS011;65885;55.848;35.916;2023-07-09T05:54:55;1.42;;;1.10;;
76939;SDS011;65885;55.848;35.916;2023-07-09T05:57:23;1.80;;;1.30;;
76939;SDS011;65885;55.848;35.916;2023-07-09T05:59:52;1.73;;;0.98;;
76939;SDS011;65885;55.848;35.916;2023-07-09T06:02:20;1.30;;;1.10;;
76939;SDS011;65885;55.848;35.916;2023-07-09T06:04:48;2.10;;;1.17;;
76939;SDS011;65885;55.848;35.916;2023-07-09T06:07:15;1.63;;;1.20;;
76939;SDS011;65885;55.848;35.916;2023-07-09T06:09:43;1.52;;;1.23;;
76939;SDS011;65885;55.848;35.916;2023-07-09T06:12:11;1.35;;;1.02;;
76939;SDS011;65885;55.848;35.916;2023-07-09T06:14:39;1.00;;;0.80;;
76939;SDS011;65885;55.848;35.916;2023-07-09T06:17:08;1.90;;;1.40;;
76939;SDS011;65885;55.848;35.916;2023-07-09T06:19:36;1.77;;;1.00;;
76939;SDS011;65885;55.848;35.916;2023-07-09T06:22:04;1.00;;;0.90;;
76939;SDS011;65885;55.848;35.916;2023-07-09T06:24:32;1.45;;;0.93;;
76939;SDS011;65885;55.848;35.916;2023-07-09T06:26:59;1.80;;;0.77;;
76939;SDS011;65885;55.848;35.916;2023-07-09T06:29:27;0.90;;;0.70;;
76939;SDS011;65885;55.848;35.916;2023-07-09T06:31:54;0.80;;;0.80;;
76939;SDS011;65885;55.848;35.916;2023-07-09T06:34:23;1.92;;;0.98;;
76939;SDS011;65885;55.848;35.916;2023-07-09T06:36:50;1.30;;;0.85;;
76939;SDS011;65885;55.848;35.916;2023-07-09T06:39:18;1.42;;;1.25;;
76939;SDS011;65885;55.848;35.916;2023-07-09T06:41:46;1.65;;;0.80;;
76939;SDS011;65885;55.848;35.916;2023-07-09T06:44:14;1.30;;;0.85;;
76939;SDS011;65885;55.848;35.916;2023-07-09T06:46:42;0.88;;;0.80;;
76939;SDS011;65885;55.848;35.916;2023-07-09T06:49:11;1.63;;;1.10;;
76939;SDS011;65885;55.848;35.916;2023-07-09T06:51:40;1.60;;;0.90;;
76939;SDS011;65885;55.848;35.916;2023-07-09T06:54:08;0.90;;;0.90;;
76939;SDS011;65885;55.848;35.916;2023-07-09T06:56:35;1.25;;;1.10;;
76939;SDS011;65885;55.848;35.916;2023-07-09T06:59:02;0.98;;;0.73;;
76939;SDS011;65885;55.848;35.916;2023-07-09T07:01:30;0.98;;;0.80;;
76939;SDS011;65885;55.848;35.916;2023-07-09T07:03:58;1.73;;;1.00;;
76939;SDS011;65885;55.848;35.916;2023-07-09T07:06:25;1.20;;;1.00;;
76939;SDS011;65885;55.848;35.916;2023-07-09T07:08:54;1.17;;;0.80;;
76939;SDS011;65885;55.848;35.916;2023-07-09T07:11:22;1.27;;;0.85;;
76939;SDS011;65885;55.848;35.916;2023-07-09T07:13:50;1.83;;;1.08;;
76939;SDS011;65885;55.848;35.916;2023-07-09T07:16:18;1.00;;;0.82;;
76939;SDS011;65885;55.848;35.916;2023-07-09T07:18:45;1.23;;;0.75;;
76939;SDS011;65885;55.848;35.916;2023-07-09T07:21:13;0.90;;;0.70;;
76939;SDS011;65885;55.848;35.916;2023-07-09T07:23:40;2.33;;;0.90;;
76939;SDS011;65885;55.848;35.916;2023-07-09T07:26:09;1.42;;;0.90;;
76939;SDS011;65885;55.848;35.916;2023-07-09T07:28:36;1.75;;;0.88;;
76939;SDS011;65885;55.848;35.916;2023-07-09T07:31:04;0.88;;;0.70;;
76939;SDS011;65885;55.848;35.916;2023-07-09T07:33:33;1.02;;;0.70;;
76939;SDS011;65885;55.848;35.916;2023-07-09T07:36:03;2.42;;;0.90;;
76939;SDS011;65885;55.848;35.916;2023-07-09T07:38:31;2.35;;;0.93;;
76939;SDS011;65885;55.848;35.916;2023-07-09T07:40:58;1.45;;;0.90;;
76939;SDS011;65885;55.848;35.916;2023-07-09T07:43:28;1.02;;;0.70;;
76939;SDS011;65885;55.848;35.916;2023-07-09T07:45:55;1.20;;;0.75;;
76939;SDS011;65885;55.848;35.916;2023-07-09T07:48:23;1.13;;;0.80;;
76939;SDS011;65885;55.848;35.916;2023-07-09T07:50:50;1.10;;;0.80;;
76939;SDS011;65885;55.848;35.916;2023-07-09T07:53:17;2.38;;;0.90;;
76939;SDS011;65885;55.848;35.916;2023-07-09T07:55:45;1.58;;;1.00;;
76939;SDS011;65885;55.848;35.916;2023-07-09T07:58:13;2.35;;;0.80;;
76939;SDS011;65885;55.848;35.916;2023-07-09T08:00:42;0.93;;;0.75;;
76939;SDS011;65885;55.848;35.916;2023-07-09T08:03:09;1.83;;;0.90;;
76939;SDS011;65885;55.848;35.916;2023-07-09T08:05:36;1.20;;;0.88;;
76939;SDS011;65885;55.848;35.916;2023-07-09T08:08:04;1.80;;;0.90;;
76939;SDS011;65885;55.848;35.916;2023-07-09T08:10:31;0.70;;;0.60;;
76939;SDS011;65885;55.848;35.916;2023-07-09T08:12:59;1.75;;;1.00;;
76939;SDS011;65885;55.848;35.916;2023-07-09T08:15:27;1.10;;;0.60;;
76939;SDS011;65885;55.848;35.916;2023-07-09T08:17:56;2.25;;;0.85;;
76939;SDS011;65885;55.848;35.916;2023-07-09T08:20:23;1.60;;;0.90;;
76939;SDS011;65885;55.848;35.916;2023-07-09T08:22:51;0.77;;;0.65;;
76939;SDS011;65885;55.848;35.916;2023-07-09T08:25:18;2.33;;;0.68;;
76939;SDS011;65885;55.848;35.916;2023-07-09T08:27:45;0.90;;;0.80;;
76939;SDS011;65885;55.848;35.916;2023-07-09T08:30:13;1.15;;;0.82;;
76939;SDS011;65885;55.848;35.916;2023-07-09T08:32:40;1.05;;;0.65;;
76939;SDS011;65885;55.848;35.916;2023-07-09T08:35:09;1.58;;;0.55;;
76939;SDS011;65885;55.848;35.916;2023-07-09T08:37:37;0.93;;;0.80;;
76939;SDS011;65885;55.848;35.916;2023-07-09T08:40:07;1.55;;;0.90;;
76939;SDS011;65885;55.848;35.916;2023-07-09T08:42:39;1.50;;;0.70;;
76939;SDS011;65885;55.848;35.916;2023-07-09T08:45:20;1.05;;;0.65;;
76939;SDS011;65885;55.848;35.916;2023-07-09T08:47:58;1.45;;;0.88;;
76939;SDS011;65885;55.848;35.916;2023-07-09T08:50:35;0.82;;;0.80;;
76939;SDS011;65885;55.848;35.916;2023-07-09T08:53:05;0.75;;;0.63;;
76939;SDS011;65885;55.848;35.916;2023-07-09T08:55:41;2.78;;;1.13;;
76939;SDS011;65885;55.848;35.916;2023-07-09T08:58:10;1.48;;;0.60;;
76939;SDS011;65885;55.848;35.916;2023-07-09T09:00:43;0.70;;;0.70;;
76939;SDS011;65885;55.848;35.916;2023-07-09T09:03:16;0.52;;;0.52;;
76939;SDS011;65885;55.848;35.916;2023-07-09T09:05:55;1.00;;;0.90;;
76939;SDS011;65885;55.848;35.916;2023-07-09T09:08:27;0.93;;;0.40;;
76939;SDS011;65885;55.848;35.916;2023-07-09T09:11:10;0.88;;;0.60;;
76939;SDS011;65885;55.848;35.916;2023-07-09T09:13:42;0.85;;;0.70;;
76939;SDS011;65885;55.848;35.916;2023-07-09T09:16:11;0.52;;;0.52;;
76939;SDS011;65885;55.848;35.916;2023-07-09T09:18:49;0.98;;;0.77;;
76939;SDS011;65885;55.848;35.916;2023-07-09T09:21:23;0.73;;;0.60;;
76939;SDS011;65885;55.848;35.916;2023-07-09T09:23:57;0.77;;;0.68;;
76939;SDS011;65885;55.848;35.916;2023-07-09T09:26:26;1.48;;;0.65;;
76939;SDS011;65885;55.848;35.916;2023-07-09T09:28:57;1.50;;;0.60;;
76939;SDS011;65885;55.848;35.916;2023-07-09T09:31:25;0.75;;;0.63;;
76939;SDS011;65885;55.848;35.916;2023-07-09T09:33:54;0.60;;;0.50;;
76939;SDS011;65885;55.848;35.916;2023-07-09T09:36:24;0.82;;;0.70;;
76939;SDS011;65885;55.848;35.916;2023-07-09T09:38:53;1.08;;;0.47;;
76939;SDS011;65885;55.848;35.916;2023-07-09T09:41:21;1.40;;;0.35;;
76939;SDS011;65885;55.848;35.916;2023-07-09T09:43:51;0.65;;;0.50;;
76939;SDS011;65885;55.848;35.916;2023-07-09T09:46:20;0.70;;;0.50;;
76939;SDS011;65885;55.848;35.916;2023-07-09T09:48:50;1.60;;;0.60;;
76939;SDS011;65885;55.848;35.916;2023-07-09T09:51:19;0.60;;;0.47;;
76939;SDS011;65885;55.848;35.916;2023-07-09T09:53:49;0.45;;;0.30;;
76939;SDS011;65885;55.848;35.916;2023-07-09T09:56:18;0.50;;;0.40;;
76939;SDS011;65885;55.848;35.916;2023-07-09T09:58:52;1.27;;;0.68;;
76939;SDS011;65885;55.848;35.916;2023-07-09T10:01:24;0.88;;;0.60;;
76939;SDS011;65885;55.848;35.916;2023-07-09T10:03:55;1.25;;;0.50;;
76939;SDS011;65885;55.848;35.916;2023-07-09T10:06:27;0.60;;;0.60;;
76939;SDS011;65885;55.848;35.916;2023-07-09T10:09:02;0.60;;;0.60;;
76939;SDS011;65885;55.848;35.916;2023-07-09T10:11:41;0.50;;;0.40;;
76939;SDS011;65885;55.848;35.916;2023-07-09T10:14:18;1.65;;;0.50;;
76939;SDS011;65885;55.848;35.916;2023-07-09T10:16:57;0.50;;;0.40;;
76939;SDS011;65885;55.848;35.916;2023-07-09T10:19:31;0.88;;;0.50;;
76939;SDS011;65885;55.848;35.916;2023-07-09T10:22:06;0.82;;;0.40;;
76939;SDS011;65885;55.848;35.916;2023-07-09T10:24:45;0.30;;;0.22;;
76939;SDS011;65885;55.848;35.916;2023-07-09T10:27:22;0.47;;;0.40;;
76939;SDS011;65885;55.848;35.916;2023-07-09T10:29:59;0.30;;;0.30;;
76939;SDS011;65885;55.848;35.916;2023-07-09T10:32:48;1.20;;;0.50;;
76939;SDS011;65885;55.848;35.916;2023-07-09T10:35:27;1.17;;;0.40;;
76939;SDS011;65885;55.848;35.916;2023-07-09T10:38:06;1.08;;;0.52;;
76939;SDS011;65885;55.848;35.916;2023-07-09T10:40:43;0.52;;;0.50;;
76939;SDS011;65885;55.848;35.916;2023-07-09T10:43:16;0.57;;;0.40;;
76939;SDS011;65885;55.848;35.916;2023-07-09T10:45:47;0.30;;;0.30;;
76939;SDS011;65885;55.848;35.916;2023-07-09T10:48:20;0.63;;;0.30;;
76939;SDS011;65885;55.848;35.916;2023-07-09T10:51:07;0.55;;;0.32;;
76939;SDS011;65885;55.848;35.916;2023-07-09T10:53:44;1.95;;;0.57;;
76939;SDS011;65885;55.848;35.916;2023-07-09T10:56:19;0.57;;;0.32;;
76939;SDS011;65885;55.848;35.916;2023-07-09T10:58:50;0.32;;;0.30;;
76939;SDS011;65885;55.848;35.916;2023-07-09T11:01:25;0.40;;;0.32;;
76939;SDS011;65885;55.848;35.916;2023-07-09T11:03:59;0.30;;;0.30;;
76939;SDS011;65885;55.848;35.916;2023-07-09T11:06:31;0.98;;;0.20;;
76939;SDS011;65885;55.848;35.916;2023-07-09T11:09:04;0.40;;;0.40;;
76939;SDS011;65885;55.848;35.916;2023-07-09T11:11:42;0.75;;;0.30;;
76939;SDS011;65885;55.848;35.916;2023-07-09T11:14:19;0.45;;;0.38;;
76939;SDS011;65885;55.848;35.916;2023-07-09T11:16:51;0.30;;;0.30;;
76939;SDS011;65885;55.848;35.916;2023-07-09T11:21:59;0.52;;;0.43;;
76939;SDS011;65885;55.848;35.916;2023-07-09T11:24:32;0.40;;;0.30;;
76939;SDS011;65885;55.848;35.916;2023-07-09T11:27:14;0.95;;;0.40;;
76939;SDS011;65885;55.848;35.916;2023-07-09T11:29:47;0.47;;;0.30;;
76939;SDS011;65885;55.848;35.916;2023-07-09T11:32:22;0.90;;;0.28;;
76939;SDS011;65885;55.848;35.916;2023-07-09T11:34:49;0.30;;;0.30;;
76939;SDS011;65885;55.848;35.916;2023-07-09T11:37:17;1.92;;;0.30;;
76939;SDS011;65885;55.848;35.916;2023-07-09T11:39:45;2.25;;;0.50;;
76939;SDS011;65885;55.848;35.916;2023-07-09T11:42:46;0.40;;;0.30;;
76939;SDS011;65885;55.848;35.916;2023-07-09T11:45:16;0.40;;;0.30;;
76939;SDS011;65885;55.848;35.916;2023-07-09T11:47:49;0.73;;;0.57;;
76939;SDS011;65885;55.848;35.916;2023-07-09T11:50:22;0.57;;;0.22;;
76939;SDS011;65885;55.848;35.916;2023-07-09T11:52:52;0.40;;;0.30;;
76939;SDS011;65885;55.848;35.916;2023-07-09T11:55:26;0.70;;;0.30;;
76939;SDS011;65885;55.848;35.916;2023-07-09T11:58:08;0.40;;;0.30;;
76939;SDS011;65885;55.848;35.916;2023-07-09T12:00:38;0.30;;;0.30;;
76939;SDS011;65885;55.848;35.916;2023-07-09T12:05:41;0.35;;;0.35;;
76939;SDS011;65885;55.848;35.916;2023-07-09T12:08:17;0.85;;;0.30;;
76939;SDS011;65885;55.848;35.916;2023-07-09T12:10:49;0.50;;;0.43;;
76939;SDS011;65885;55.848;35.916;2023-07-09T12:13:18;1.05;;;0.60;;
76939;SDS011;65885;55.848;35.916;2023-07-09T12:15:46;3.45;;;0.52;;
76939;SDS011;65885;55.848;35.916;2023-07-09T12:18:14;1.33;;;0.32;;
76939;SDS011;65885;55.848;35.916;2023-07-09T12:20:47;0.45;;;0.45;;
76939;SDS011;65885;55.848;35.916;2023-07-09T12:23:19;0.60;;;0.40;;
76939;SDS011;65885;55.848;35.916;2023-07-09T12:25:50;1.05;;;0.30;;
76939;SDS011;65885;55.848;35.916;2023-07-09T12:28:20;0.40;;;0.40;;
76939;SDS011;65885;55.848;35.916;2023-07-09T12:30:49;0.30;;;0.30;;
76939;SDS011;65885;55.848;35.916;2023-07-09T12:33:18;0.30;;;0.30;;
76939;SDS011;65885;55.848;35.916;2023-07-09T12:35:47;1.15;;;0.60;;
76939;SDS011;65885;55.848;35.916;2023-07-09T12:38:23;0.30;;;0.30;;
76939;SDS011;65885;55.848;35.916;2023-07-09T12:40:52;0.90;;;0.40;;
76939;SDS011;65885;55.848;35.916;2023-07-09T12:43:25;0.40;;;0.38;;
76939;SDS011;65885;55.848;35.916;2023-07-09T12:45:53;0.40;;;0.40;;
76939;SDS011;65885;55.848;35.916;2023-07-09T12:48:24;0.47;;;0.30;;
76939;SDS011;65885;55.848;35.916;2023-07-09T12:50:54;0.40;;;0.30;;
76939;SDS011;65885;55.848;35.916;2023-07-09T12:53:24;0.43;;;0.32;;
76939;SDS011;65885;55.848;35.916;2023-07-09T12:55:54;0.60;;;0.40;;
76939;SDS011;65885;55.848;35.916;2023-07-09T12:58:24;0.75;;;0.40;;
76939;SDS011;65885;55.848;35.916;2023-07-09T13:00:56;0.85;;;0.55;;
76939;SDS011;65885;55.848;35.916;2023-07-09T13:03:25;1.15;;;0.30;;
76939;SDS011;65885;55.848;35.916;2023-07-09T13:05:55;1.13;;;0.50;;
76939;SDS011;65885;55.848;35.916;2023-07-09T13:08:25;0.40;;;0.40;;
76939;SDS011;65885;55.848;35.916;2023-07-09T13:10:53;0.40;;;0.32;;
76939;SDS011;65885;55.848;35.916;2023-07-09T13:13:22;0.40;;;0.40;;
76939;SDS011;65885;55.848;35.916;2023-07-09T13:15:52;1.40;;;0.40;;
76939;SDS011;65885;55.848;35.916;2023-07-09T13:18:24;0.43;;;0.38;;
76939;SDS011;65885;55.848;35.916;2023-07-09T13:20:53;1.23;;;0.40;;
76939;SDS011;65885;55.848;35.916;2023-07-09T13:23:23;0.45;;;0.32;;
76939;SDS011;65885;55.848;35.916;2023-07-09T13:25:52;0.70;;;0.60;;
76939;SDS011;65885;55.848;35.916;2023-07-09T13:28:22;0.50;;;0.40;;
76939;SDS011;65885;55.848;35.916;2023-07-09T13:30:53;1.23;;;0.55;;
76939;SDS011;65885;55.848;35.916;2023-07-09T13:33:23;0.68;;;0.40;;
76939;SDS011;65885;55.848;35.916;2023-07-09T13:35:50;0.43;;;0.40;;
76939;SDS011;65885;55.848;35.916;2023-07-09T13:38:20;1.13;;;0.50;;
76939;SDS011;65885;55.848;35.916;2023-07-09T13:40:50;1.13;;;0.52;;
76939;SDS011;65885;55.848;35.916;2023-07-09T13:43:24;1.27;;;0.60;;
76939;SDS011;65885;55.848;35.916;2023-07-09T13:45:56;0.63;;;0.40;;
76939;SDS011;65885;55.848;35.916;2023-07-09T13:48:24;0.30;;;0.30;;
76939;SDS011;65885;55.848;35.916;2023-07-09T13:50:54;0.50;;;0.40;;
76939;SDS011;65885;55.848;35.916;2023-07-09T13:53:24;0.40;;;0.40;;
76939;SDS011;65885;55.848;35.916;2023-07-09T13:55:53;2.75;;;0.40;;
76939;SDS011;65885;55.848;35.916;2023-07-09T13:58:22;0.50;;;0.50;;
76939;SDS011;65885;55.848;35.916;2023-07-09T14:00:54;1.05;;;0.50;;
76939;SDS011;65885;55.848;35.916;2023-07-09T14:03:25;1.10;;;0.47;;
76939;SDS011;65885;55.848;35.916;2023-07-09T14:05:53;0.50;;;0.40;;
76939;SDS011;65885;55.848;35.916;2023-07-09T14:08:21;0.52;;;0.40;;
76939;SDS011;65885;55.848;35.916;2023-07-09T14:10:49;0.70;;;0.60;;
76939;SDS011;65885;55.848;35.916;2023-07-09T14:13:17;0.60;;;0.50;;
76939;SDS011;65885;55.848;35.916;2023-07-09T14:18:17;0.73;;;0.60;;
76939;SDS011;65885;55.848;35.916;2023-07-09T14:20:46;1.20;;;0.63;;
76939;SDS011;65885;55.848;35.916;2023-07-09T14:23:15;0.77;;;0.50;;
76939;SDS011;65885;55.848;35.916;2023-07-09T14:25:44;0.47;;;0.47;;
76939;SDS011;65885;55.848;35.916;2023-07-09T14:28:12;0.88;;;0.57;;
76939;SDS011;65885;55.848;35.916;2023-07-09T14:30:41;0.63;;;0.52;;
76939;SDS011;65885;55.848;35.916;2023-07-09T14:33:12;0.82;;;0.50;;
76939;SDS011;65885;55.848;35.916;2023-07-09T14:35:42;1.00;;;0.40;;
76939;SDS011;65885;55.848;35.916;2023-07-09T14:38:14;0.75;;;0.63;;
76939;SDS011;65885;55.848;35.916;2023-07-09T14:40:43;0.40;;;0.40;;
76939;SDS011;65885;55.848;35.916;2023-07-09T14:43:11;0.60;;;0.50;;
76939;SDS011;65885;55.848;35.916;2023-07-09T14:45:39;1.02;;;0.65;;
76939;SDS011;65885;55.848;35.916;2023-07-09T14:48:10;0.70;;;0.50;;
76939;SDS011;65885;55.848;35.916;2023-07-09T14:50:38;0.68;;;0.45;;
76939;SDS011;65885;55.848;35.916;2023-07-09T14:53:11;0.65;;;0.50;;
76939;SDS011;65885;55.848;35.916;2023-07-09T14:55:41;0.82;;;0.55;;
76939;SDS011;65885;55.848;35.916;2023-07-09T14:58:14;0.80;;;0.75;;
76939;SDS011;65885;55.848;35.916;2023-07-09T15:00:43;0.60;;;0.52;;
76939;SDS011;65885;55.848;35.916;2023-07-09T15:03:14;1.00;;;0.60;;
76939;SDS011;65885;55.848;35.916;2023-07-09T15:05:44;0.63;;;0.50;;